Time;durP1;ratioP1;P1;durP2;ratioP2;P2;SDS_P1;SDS_P2;PMS_P1;PMS_P2;Temp;Humidity;BMP_temperature;BMP_pressure;BME280_temperature;BME280_humidity;BME280_pressure;Samples;Min_cycle;Max_cycle;Signal;HPM_P1;HPM_P2
2022/12/14 00:01:26;;;;;;;31.33;17.65;;;1.10;63.90;;;-4.61;97.06;94141.06;5008271;28;20025;-52
2022/12/14 00:03:55;;;;;;;30.27;17.02;;;1.10;63.80;;;-4.56;96.95;94138.66;5007726;28;20033;-55
2022/12/14 00:06:26;;;;;;;30.30;16.80;;;1.10;63.70;;;-4.56;97.14;94140.47;5007033;28;20021;-52
2022/12/14 00:08:57;;;;;;;32.75;16.63;;;1.10;63.60;;;-4.58;97.01;94132.84;4975516;28;20026;-52
2022/12/14 00:11:25;;;;;;;31.88;17.27;;;1.10;63.70;;;-4.56;97.19;94117.88;5004461;28;20021;-52
2022/12/14 00:14:14;;;;;;;34.13;17.33;;;1.10;64.50;;;-4.69;96.56;94118.72;4977107;28;20036;-52
2022/12/14 00:16:40;;;;;;;34.63;17.67;;;1.10;63.80;;;-4.61;97.38;94119.47;5012240;28;20021;-51
2022/12/14 00:19:11;;;;;;;30.83;17.20;;;1.10;63.80;;;-4.54;97.43;94115.88;5005878;28;20039;-50
2022/12/14 00:21:37;;;;;;;31.55;17.08;;;1.00;63.80;;;-4.47;97.22;94114.03;5005326;28;20025;-50
2022/12/14 00:24:03;;;;;;;30.73;16.98;;;1.00;63.90;;;-4.47;97.21;94108.03;5010498;28;20022;-50
2022/12/14 00:26:35;;;;;;;32.53;16.90;;;1.10;63.90;;;-4.45;97.10;94109.44;5009961;28;20013;-52
2022/12/14 00:29:01;;;;;;;28.98;16.63;;;1.10;63.90;;;-4.40;96.84;94113.19;5013468;28;20088;-50
2022/12/14 00:31:31;;;;;;;28.35;16.17;;;1.10;63.90;;;-4.39;96.63;94109.59;5008628;28;20546;-52
2022/12/14 00:33:57;;;;;;;34.30;16.65;;;1.20;64.00;;;-4.39;96.31;94105.19;5011400;28;20033;-50
2022/12/14 00:36:24;;;;;;;30.60;16.73;;;1.20;64.00;;;-4.34;96.52;94099.38;5023133;28;20052;-53
2022/12/14 00:38:50;;;;;;;33.72;16.33;;;1.20;64.00;;;-4.31;96.37;94101.56;5010475;28;20035;-51
2022/12/14 00:41:16;;;;;;;32.75;16.40;;;1.20;64.00;;;-4.34;95.96;94104.56;5005761;28;20043;-51
2022/12/14 00:43:44;;;;;;;31.00;16.15;;;1.20;63.90;;;-4.35;96.05;94108.97;5010898;28;20017;-51
2022/12/14 00:46:10;;;;;;;27.23;16.40;;;1.20;63.80;;;-4.35;96.22;94100.38;5011202;28;20038;-49
2022/12/14 00:48:38;;;;;;;34.85;16.77;;;1.20;63.80;;;-4.45;95.67;94103.41;5012362;28;20047;-51
2022/12/14 00:51:04;;;;;;;33.67;17.75;;;1.20;63.80;;;-4.59;96.51;94107.88;5011564;28;20021;-52
2022/12/14 00:53:30;;;;;;;32.40;16.70;;;1.20;63.80;;;-4.46;96.55;94114.81;5007808;28;20029;-52
2022/12/14 00:56:09;;;;;;;30.80;17.13;;;1.20;64.20;;;-4.40;96.55;94108.78;5008483;28;20056;-53
2022/12/14 00:58:35;;;;;;;32.80;16.70;;;1.20;63.80;;;-4.38;96.64;94100.81;5005434;28;20029;-50
2022/12/14 01:01:07;;;;;;;30.02;16.00;;;1.20;63.80;;;-4.38;96.80;94106.00;5002754;28;21412;-49
2022/12/14 01:03:36;;;;;;;32.38;17.98;;;1.20;63.80;;;-4.43;96.55;94110.00;5009873;28;20085;-53
2022/12/14 01:06:02;;;;;;;31.00;17.52;;;1.20;63.80;;;-4.38;96.74;94106.78;5008018;28;20025;-54
2022/12/14 01:08:34;;;;;;;32.42;17.20;;;1.20;63.80;;;-4.38;96.89;94093.78;4996712;28;20029;-49
2022/12/14 01:11:06;;;;;;;29.65;16.92;;;1.20;63.80;;;-4.43;96.36;94098.81;5010442;28;20037;-52
2022/12/14 01:13:37;;;;;;;35.38;17.67;;;1.20;63.80;;;-4.44;96.41;94107.63;5008838;28;20021;-49
2022/12/14 01:16:13;;;;;;;32.47;17.10;;;1.20;63.70;;;-4.42;97.07;94103.00;5026003;28;20024;-50
2022/12/14 01:18:42;;;;;;;30.80;16.30;;;1.20;63.80;;;-4.45;96.90;94109.44;5005136;28;20033;-51
2022/12/14 01:21:21;;;;;;;34.13;18.38;;;1.20;63.80;;;-4.39;97.11;94106.97;4991898;28;20071;-49
2022/12/14 01:23:53;;;;;;;35.60;19.00;;;1.20;63.90;;;-4.44;97.10;94111.00;5004137;28;20112;-50
2022/12/14 01:26:21;;;;;;;35.03;18.60;;;1.20;63.90;;;-4.43;97.40;94117.78;4995470;28;20013;-50
2022/12/14 01:28:54;;;;;;;35.42;18.13;;;1.20;64.00;;;-4.42;97.53;94116.81;5008617;28;20032;-49
2022/12/14 01:31:30;;;;;;;35.00;19.05;;;1.20;64.00;;;-4.43;97.62;94112.59;5006187;28;20426;-51
2022/12/14 01:33:56;;;;;;;35.80;19.25;;;1.10;63.90;;;-4.45;97.42;94111.19;4997816;28;20029;-48
2022/12/14 01:36:29;;;;;;;38.67;18.52;;;1.10;63.90;;;-4.42;97.63;94106.41;5009313;28;20723;-51
2022/12/14 01:38:59;;;;;;;34.33;18.27;;;1.10;64.80;;;-4.46;96.85;94107.81;5005869;28;20037;-49
2022/12/14 01:41:51;;;;;;;31.20;18.05;;;1.10;64.00;;;-4.44;97.63;94107.63;5013155;28;20021;-49
2022/12/14 01:44:17;;;;;;;35.75;19.60;;;1.10;64.00;;;-4.46;97.80;94110.41;5006231;28;20025;-51
2022/12/14 01:47:47;;;;;;;41.55;18.88;;;1.10;63.90;;;-4.38;97.86;94106.78;5008648;28;20052;-50
2022/12/14 01:50:43;;;;;;;36.15;18.48;;;1.20;64.10;;;-4.48;97.35;94102.03;4990221;28;20045;-49
2022/12/14 01:53:22;;;;;;;35.00;18.20;;;1.10;64.10;;;-4.49;97.49;94112.63;5013419;28;20124;-52
2022/12/14 01:55:55;;;;;;;37.70;19.33;;;1.10;64.10;;;-4.51;97.48;94104.22;5012740;28;20032;-49
2022/12/14 01:58:25;;;;;;;35.00;20.00;;;1.10;64.10;;;-4.46;97.49;94107.00;5005263;28;20040;-50
2022/12/14 02:01:01;;;;;;;40.15;20.60;;;1.10;64.10;;;-4.55;97.36;94087.47;5005215;28;20040;-50
2022/12/14 02:03:48;;;;;;;38.78;20.08;;;1.10;64.20;;;-4.56;97.26;94078.09;5011622;28;20061;-53
2022/12/14 02:06:27;;;;;;;41.88;20.48;;;1.10;64.10;;;-4.54;97.27;94100.28;5008964;28;20033;-55
2022/12/14 02:08:56;;;;;;;42.60;21.08;;;1.00;64.00;;;-4.58;97.11;94098.28;5008960;28;20451;-53
2022/12/14 02:12:03;;;;;;;47.97;21.85;;;1.00;64.00;;;-4.58;97.26;94087.88;4994953;28;20032;-51
2022/12/14 02:14:36;;;;;;;39.67;20.65;;;1.00;64.00;;;-4.56;97.24;94093.69;5027935;28;20142;-50
2022/12/14 02:17:03;;;;;;;44.35;21.20;;;1.00;63.90;;;-4.53;97.61;94093.25;5014069;28;20029;-50
2022/12/14 02:19:29;;;;;;;45.70;22.35;;;1.00;64.00;;;-4.59;97.73;94081.88;5012470;28;20095;-53
2022/12/14 02:22:18;;;;;;;44.03;22.20;;;1.00;64.00;;;-4.59;97.92;94086.28;4988760;28;20018;-52
2022/12/14 02:25:27;;;;;;;43.50;20.73;;;1.00;64.10;;;-4.61;97.99;94067.50;5001455;28;20037;-54
2022/12/14 02:28:22;;;;;;;45.58;21.23;;;1.00;64.10;;;-4.63;98.62;94066.94;5013551;28;20026;-50
2022/12/14 02:31:22;;;;;;;48.22;21.85;;;1.00;64.10;;;-4.66;98.94;94079.31;5032128;28;20021;-51
2022/12/14 02:34:29;;;;;;;43.58;21.50;;;0.90;64.20;;;-4.58;98.90;94083.47;5026379;28;20009;-51
2022/12/14 02:37:20;;;;;;;41.47;21.05;;;0.90;64.30;;;-4.53;99.28;94085.47;4990908;28;20041;-52
2022/12/14 02:41:01;;;;;;;52.88;21.58;;;1.00;64.50;;;-4.55;99.81;94049.28;5010822;28;20041;-49
2022/12/14 02:44:19;;;;;;;43.22;21.73;;;1.00;64.60;;;-4.53;100.00;94072.47;4983418;28;20033;-50
2022/12/14 02:47:01;;;;;;;48.65;21.58;;;1.00;64.50;;;-4.56;100.00;94084.06;5012251;28;20387;-50
2022/12/14 02:50:07;;;;;;;41.93;21.00;;;1.00;64.60;;;-4.59;99.49;94052.50;5012985;28;20467;-51
2022/12/14 02:53:11;;;;;;;44.60;21.27;;;1.00;64.60;;;-4.54;99.91;94052.69;5007809;28;20025;-51
2022/12/14 02:55:50;;;;;;;49.40;22.58;;;1.00;64.60;;;-4.49;100.00;94039.84;5012920;28;20025;-52
2022/12/14 02:58:55;;;;;;;47.55;23.15;;;1.00;64.70;;;-4.45;100.00;94041.84;4994549;28;20067;-50
2022/12/14 03:01:28;;;;;;;44.05;22.45;;;1.00;64.80;;;-4.42;100.00;94033.63;5008792;28;20041;-49
2022/12/14 03:03:54;;;;;;;43.50;22.00;;;1.00;64.90;;;-4.46;99.96;94019.44;5008893;28;20022;-51
2022/12/14 03:06:25;;;;;;;41.85;21.08;;;1.10;64.90;;;-4.39;99.99;94021.97;5012373;28;20021;-52
2022/12/14 03:09:14;;;;;;;41.30;21.92;;;1.10;64.90;;;-4.35;100.00;94030.19;5004782;28;20030;-53
2022/12/14 03:11:56;;;;;;;44.90;22.42;;;1.10;64.90;;;-4.30;100.00;94017.34;5010630;28;20503;-50
2022/12/14 03:14:40;;;;;;;41.60;21.35;;;1.10;65.00;;;-4.22;100.00;94019.69;5008811;28;20456;-54
2022/12/14 03:17:22;;;;;;;45.25;21.38;;;1.20;65.00;;;-4.16;100.00;94024.03;5007012;28;20117;-52
2022/12/14 03:20:09;;;;;;;37.95;20.15;;;1.30;65.10;;;-4.11;99.85;94037.19;4991192;28;20156;-53
2022/12/14 03:22:59;;;;;;;38.30;20.63;;;1.30;65.00;;;-4.13;99.79;94023.63;5003644;28;20479;-55
2022/12/14 03:25:43;;;;;;;38.50;20.15;;;1.30;64.90;;;-4.16;99.00;94011.03;4990416;28;20038;-55
2022/12/14 03:29:00;;;;;;;38.22;19.85;;;1.40;64.90;;;-4.12;99.27;94004.41;4986734;28;20056;-55
2022/12/14 03:31:45;;;;;;;37.55;19.05;;;1.40;64.90;;;-4.08;99.36;93997.75;4988676;28;20154;-53
2022/12/14 03:34:18;;;;;;;41.38;20.40;;;1.40;64.90;;;-4.14;99.53;94001.22;5008056;28;20225;-55
2022/12/14 03:37:09;;;;;;;36.33;19.15;;;1.40;64.80;;;-4.07;99.46;93988.97;5008165;28;20480;-54
2022/12/14 03:39:40;;;;;;;40.38;20.77;;;1.50;64.90;;;-4.02;99.38;93994.31;5005738;28;20040;-54
2022/12/14 03:42:58;;;;;;;40.35;20.58;;;1.50;64.90;;;-4.02;98.89;93996.13;5008948;28;20032;-55
2022/12/14 03:46:32;;;;;;;38.45;20.55;;;1.50;64.90;;;-3.96;98.67;94006.47;4967045;28;20046;-53
2022/12/14 03:49:38;;;;;;;41.28;20.83;;;1.50;64.90;;;-3.94;99.64;94006.28;4964327;28;20450;-55
2022/12/14 03:52:52;;;;;;;35.80;19.02;;;1.60;64.90;;;-3.83;99.58;93996.97;4966603;28;20657;-55
2022/12/14 03:55:26;;;;;;;38.55;19.80;;;1.60;65.00;;;-3.82;99.09;94001.97;4966531;28;20023;-55
2022/12/14 03:58:37;;;;;;;38.00;19.80;;;1.60;65.00;;;-3.75;99.01;93994.88;4968058;28;20559;-54
2022/12/14 04:01:34;;;;;;;37.92;20.08;;;1.70;65.00;;;-3.79;98.92;93985.09;4948990;28;20041;-54
2022/12/14 04:04:27;;;;;;;38.00;19.77;;;1.70;65.00;;;-3.76;98.67;93988.09;4968121;28;20049;-54
2022/12/14 04:07:31;;;;;;;;;;;1.70;64.90;;;-3.69;98.61;93990.63;4952694;28;20585;-55
2022/12/14 04:19:07;;;;;;;39.22;19.98;;;1.70;64.70;;;-3.76;97.95;93982.88;5009053;28;20519;-54
2022/12/14 04:21:38;;;;;;;42.95;21.25;;;1.80;64.70;;;-3.76;98.25;93971.66;4998583;28;20102;-55
2022/12/14 04:27:56;;;;;;;41.83;21.48;;;1.70;64.70;;;-3.73;98.13;93981.63;5010572;28;20110;-54
2022/12/14 04:30:23;;;;;;;37.05;19.73;;;1.80;64.80;;;-3.74;97.88;93960.03;4991543;28;20034;-55
2022/12/14 04:33:45;;;;;;;40.70;20.27;;;1.80;64.70;;;-3.68;98.70;93968.00;5002621;28;20021;-54
2022/12/14 04:35:57;;;;;;;37.08;19.67;;;1.80;64.90;;;-3.62;98.40;93952.31;5006925;28;20028;-52
2022/12/14 04:38:38;;;;;;;43.20;21.02;;;1.90;64.90;;;-3.67;98.07;93952.16;4988432;28;20030;-55
2022/12/14 04:41:16;;;;;;;35.42;19.75;;;1.90;64.90;;;-3.64;97.96;93962.13;5006935;28;20032;-53
2022/12/14 04:43:49;;;;;;;37.55;19.45;;;1.90;64.90;;;-3.60;97.79;93958.09;5012365;28;20032;-52
2022/12/14 04:46:28;;;;;;;40.53;20.63;;;1.90;64.90;;;-3.58;98.28;93952.66;4979654;23;20085;-49
2022/12/14 04:49:36;;;;;;;38.72;20.88;;;1.90;64.90;;;-3.55;99.28;93949.63;4964246;28;20117;-46
2022/12/14 04:52:12;;;;;;;39.13;20.15;;;1.90;65.00;;;-3.48;99.34;93926.91;4961739;28;20459;-46
2022/12/14 04:55:08;;;;;;;42.95;20.98;;;1.90;65.10;;;-3.40;99.51;93942.25;4963354;28;20091;-47
2022/12/14 04:57:57;;;;;;;38.08;20.85;;;2.00;65.20;;;-3.33;99.57;93937.75;4960712;28;20025;-46
2022/12/14 05:00:31;;;;;;;37.53;20.95;;;2.00;65.20;;;-3.30;100.00;93933.94;4962705;28;20493;-48
2022/12/14 05:04:02;;;;;;;43.53;22.05;;;2.10;65.20;;;-3.22;99.87;93922.44;4953009;28;20941;-47
2022/12/14 05:07:11;;;;;;;43.28;20.65;;;2.10;65.30;;;-3.19;99.60;93917.56;4901226;29;20042;-47
2022/12/14 05:10:05;;;;;;;40.50;20.88;;;2.10;65.30;;;-3.19;99.07;93916.78;4897865;29;20515;-46
2022/12/14 05:12:43;;;;;;;37.08;18.92;;;2.20;65.40;;;-3.19;98.92;93911.59;4888265;29;20522;-46
2022/12/14 05:15:30;;;;;;;39.35;20.42;;;2.30;65.40;;;-3.13;99.71;93914.09;4885937;29;20167;-47
2022/12/14 05:18:06;;;;;;;38.97;21.08;;;2.20;65.30;;;-3.03;99.28;93910.97;4896851;29;20815;-49
2022/12/14 05:20:34;;;;;;;39.75;20.60;;;2.30;65.60;;;-2.92;99.63;93914.59;4888975;29;20629;-47
2022/12/14 05:23:00;;;;;;;41.42;22.33;;;2.40;65.50;;;-2.88;99.38;93916.56;4887701;29;20369;-48
2022/12/14 05:25:34;;;;;;;35.42;20.02;;;2.40;65.50;;;-2.83;99.02;93903.66;4901108;29;20023;-45
2022/12/14 05:28:00;;;;;;;39.17;20.10;;;2.50;65.50;;;-2.81;98.39;93909.44;4903341;29;20023;-49
2022/12/14 05:30:26;;;;;;;39.75;21.45;;;2.60;65.40;;;-2.77;98.42;93903.78;4891804;28;20094;-46
2022/12/14 05:32:52;;;;;;;38.72;20.98;;;2.60;65.20;;;-2.79;97.71;93896.19;4902513;29;20855;-51
2022/12/14 05:35:19;;;;;;;41.42;20.83;;;2.60;65.20;;;-2.82;97.29;93897.44;4888891;29;20583;-47
2022/12/14 05:37:45;;;;;;;48.97;22.05;;;2.60;65.10;;;-2.84;98.05;93891.66;4970490;28;20069;-47
2022/12/14 05:40:12;;;;;;;51.85;20.98;;;2.70;65.10;;;-2.81;98.00;93900.84;4960829;28;20477;-49
2022/12/14 05:42:38;;;;;;;38.20;20.52;;;2.70;65.10;;;-2.74;98.53;93905.94;4944805;28;20044;-47
2022/12/14 05:45:05;;;;;;;39.80;21.67;;;2.70;65.10;;;-2.75;98.70;93894.72;4960792;28;20161;-49
2022/12/14 05:47:34;;;;;;;39.63;20.27;;;2.70;65.10;;;-2.72;98.91;93876.03;4963080;28;20029;-51
2022/12/14 05:50:00;;;;;;;38.90;20.85;;;2.80;65.10;;;-2.68;98.80;93871.97;4959598;28;20089;-48
2022/12/14 05:52:26;;;;;;;33.60;19.50;;;2.80;65.10;;;-2.60;98.49;93876.84;4975771;28;20540;-50
2022/12/14 05:54:53;;;;;;;37.58;20.83;;;2.80;65.10;;;-2.56;98.54;93878.00;4956876;28;20026;-47
2022/12/14 05:57:20;;;;;;;39.53;21.42;;;2.90;65.10;;;-2.50;98.78;93878.13;4963147;28;20112;-48
2022/12/14 05:59:47;;;;;;;36.28;20.10;;;2.90;65.20;;;-2.45;99.11;93868.59;4977870;28;20069;-48
2022/12/14 06:02:15;;;;;;;38.67;20.65;;;2.90;65.10;;;-2.46;98.99;93867.00;4958451;28;20027;-49
2022/12/14 06:04:41;;;;;;;34.53;20.48;;;3.00;65.20;;;-2.38;99.27;93878.94;4963354;28;20072;-47
2022/12/14 06:07:11;;;;;;;45.50;22.42;;;3.00;65.10;;;-2.37;98.97;93864.88;4959790;28;20015;-50
2022/12/14 06:09:39;;;;;;;37.83;21.45;;;3.00;65.10;;;-2.30;99.62;93859.53;4941206;28;20114;-47
2022/12/14 06:12:05;;;;;;;39.95;21.38;;;3.10;65.10;;;-2.36;99.08;93853.41;4965314;28;20041;-52
2022/12/14 06:14:31;;;;;;;42.13;22.90;;;3.10;65.00;;;-2.35;99.19;93861.00;4965391;28;20029;-51
2022/12/14 06:16:57;;;;;;;49.30;21.60;;;3.10;65.00;;;-2.33;98.94;93858.97;4943472;28;20026;-49
2022/12/14 06:19:29;;;;;;;62.25;21.92;;;3.20;65.10;;;-2.30;99.08;93849.09;4964472;28;20030;-51
2022/12/14 06:21:55;;;;;;;39.77;21.50;;;3.10;65.00;;;-2.28;99.37;93853.06;4961130;28;20400;-49
2022/12/14 06:24:21;;;;;;;40.92;21.42;;;3.10;65.00;;;-2.24;99.64;93853.41;4957405;28;20309;-51
2022/12/14 06:26:47;;;;;;;41.38;22.70;;;3.20;65.20;;;-2.20;99.42;93838.88;4958711;28;20138;-52
2022/12/14 06:29:18;;;;;;;37.65;21.45;;;3.30;65.20;;;-2.19;98.69;93843.88;4968013;28;20121;-49
2022/12/14 06:31:45;;;;;;;37.42;20.98;;;3.20;65.20;;;-2.23;98.42;93837.53;4942717;28;20035;-49
2022/12/14 06:34:12;;;;;;;37.17;20.13;;;3.30;65.10;;;-2.26;98.38;93832.75;4960334;28;20073;-48
2022/12/14 06:36:41;;;;;;;30.27;18.38;;;3.30;65.00;;;-2.26;97.69;93830.16;4962699;28;20414;-48
2022/12/14 06:39:13;;;;;;;35.47;21.35;;;3.30;64.90;;;-2.26;98.41;93816.31;4963131;28;20037;-49
2022/12/14 06:41:41;;;;;;;34.30;20.07;;;3.30;64.90;;;-2.28;98.36;93823.59;4958613;28;20469;-48
2022/12/14 06:44:13;;;;;;;42.30;21.33;;;3.30;64.80;;;-2.31;98.78;93827.44;4961037;28;20328;-47
2022/12/14 06:46:39;;;;;;;39.20;21.00;;;3.30;64.80;;;-2.25;99.52;93820.53;4960472;28;20053;-48
2022/12/14 06:49:13;;;;;;;37.50;20.98;;;3.30;64.80;;;-2.23;98.03;93819.25;4964621;28;20089;-48
2022/12/14 06:51:41;;;;;;;32.90;19.35;;;3.30;64.90;;;-2.20;98.28;93820.63;4951355;28;20023;-50
2022/12/14 06:54:11;;;;;;;37.33;20.23;;;3.30;64.90;;;-2.21;97.90;93813.81;4970198;28;20022;-49
2022/12/14 06:56:39;;;;;;;37.30;21.20;;;3.30;64.80;;;-2.21;98.30;93803.41;4958995;28;20023;-50
2022/12/14 06:59:07;;;;;;;36.90;20.38;;;3.40;64.70;;;-2.15;98.57;93811.09;4955255;28;20041;-47
2022/12/14 07:01:36;;;;;;;48.42;21.83;;;3.40;64.80;;;-2.17;99.23;93809.72;4963265;28;20037;-50
2022/12/14 07:04:04;;;;;;;50.53;22.75;;;3.40;64.90;;;-2.22;99.43;93809.66;4938288;28;20511;-48
2022/12/14 07:06:39;;;;;;;47.22;23.38;;;3.40;64.80;;;-2.24;99.72;93812.47;4961949;28;20121;-47
2022/12/14 07:09:12;;;;;;;49.67;25.08;;;3.40;64.90;;;-2.21;99.67;93813.81;4964966;28;20103;-48
2022/12/14 07:11:37;;;;;;;75.53;26.05;;;3.40;64.90;;;-2.17;99.69;93814.94;4965728;28;20022;-53
2022/12/14 07:14:05;;;;;;;56.35;22.20;;;3.40;64.90;;;-2.21;99.39;93806.78;4966215;28;20029;-49
2022/12/14 07:16:33;;;;;;;38.55;20.40;;;3.40;65.00;;;-2.20;99.65;93810.19;4969929;28;20127;-49
2022/12/14 07:18:59;;;;;;;43.35;23.55;;;3.30;65.00;;;-2.24;99.94;93807.25;4967317;28;20037;-47
2022/12/14 07:21:26;;;;;;;45.30;22.52;;;3.40;65.00;;;-2.22;100.00;93820.88;4942550;28;20904;-50
2022/12/14 07:24:11;;;;;;;43.85;23.10;;;3.40;65.00;;;-2.25;99.58;93807.50;4959608;28;20404;-49
2022/12/14 07:26:37;;;;;;;47.60;22.67;;;3.40;65.00;;;-2.21;100.00;93806.78;4974341;28;20021;-50
2022/12/14 07:29:03;;;;;;;59.65;24.35;;;3.40;64.90;;;-2.16;100.00;93811.34;4965846;28;20069;-49
2022/12/14 07:31:29;;;;;;;42.78;23.13;;;3.40;65.00;;;-2.23;100.00;93800.22;4960755;28;20015;-49
2022/12/14 07:33:58;;;;;;;44.03;24.45;;;3.40;65.00;;;-2.22;100.00;93783.56;4966015;28;20033;-52
2022/12/14 07:36:28;;;;;;;44.70;23.38;;;3.40;65.10;;;-2.18;100.00;93801.13;4952522;28;20030;-48
2022/12/14 07:38:56;;;;;;;44.28;22.60;;;3.40;65.00;;;-2.19;99.22;93798.75;4962550;28;20285;-50
2022/12/14 07:41:29;;;;;;;39.90;22.13;;;3.50;65.00;;;-2.11;100.00;93806.22;4963921;28;20095;-49
2022/12/14 07:43:59;;;;;;;52.72;22.80;;;3.60;65.00;;;-2.03;100.00;93803.25;4962974;28;20026;-52
2022/12/14 07:46:28;;;;;;;67.50;23.70;;;3.60;65.00;;;-2.01;99.86;93789.97;4954793;28;20046;-51
2022/12/14 07:48:58;;;;;;;43.92;23.92;;;3.70;65.00;;;-2.02;99.59;93791.78;4881524;28;23532;-51
2022/12/14 07:51:34;;;;;;;44.03;22.95;;;3.80;65.00;;;-1.92;100.00;93797.22;4974079;28;20515;-47
2022/12/14 07:54:05;;;;;;;65.28;23.27;;;3.90;65.00;;;-1.86;99.98;93792.88;4959576;28;20021;-51
2022/12/14 07:56:38;;;;;;;46.22;23.63;;;4.00;64.90;;;-1.86;99.58;93791.06;4980083;28;20033;-50
2022/12/14 07:59:10;;;;;;;39.40;21.50;;;4.10;64.70;;;-1.79;99.17;93806.59;4975254;28;20049;-48
2022/12/14 08:01:36;;;;;;;53.70;23.40;;;4.10;64.40;;;-1.73;99.08;93792.63;4964198;28;20791;-51
2022/12/14 08:04:15;;;;;;;47.65;22.65;;;4.30;64.40;;;-1.71;98.97;93801.03;4951822;28;20531;-50
2022/12/14 08:06:42;;;;;;;46.15;22.95;;;4.30;64.30;;;-1.67;99.07;93812.59;4954540;28;20068;-49
2022/12/14 08:09:10;;;;;;;47.75;23.60;;;4.40;64.20;;;-1.65;99.45;93807.16;4955928;28;20397;-50
2022/12/14 08:11:38;;;;;;;62.88;24.83;;;4.40;64.20;;;-1.65;99.43;93801.91;4953893;28;20025;-50
2022/12/14 08:14:12;;;;;;;140.57;27.52;;;4.40;64.10;;;-1.60;99.32;93815.06;4945356;28;20031;-52
2022/12/14 08:16:38;;;;;;;42.45;22.25;;;4.40;64.10;;;-1.56;99.14;93816.19;4962654;28;20033;-52
2022/12/14 08:19:09;;;;;;;44.15;23.02;;;4.50;64.20;;;-1.51;99.68;93805.81;4957574;28;20029;-51
2022/12/14 08:21:35;;;;;;;56.70;25.95;;;4.40;64.10;;;-1.53;98.86;93805.28;4945592;28;20171;-50
2022/12/14 08:24:01;;;;;;;48.53;23.13;;;4.50;64.10;;;-1.49;99.35;93816.06;4886057;28;20877;-52
2022/12/14 08:26:27;;;;;;;59.40;23.35;;;4.50;64.20;;;-1.42;98.99;93809.66;4960489;28;20031;-51
2022/12/14 08:28:55;;;;;;;41.08;22.55;;;4.40;64.10;;;-1.44;98.96;93809.13;4959853;28;20191;-54
2022/12/14 08:31:26;;;;;;;45.92;24.58;;;4.40;64.20;;;-1.38;99.11;93799.53;4934366;28;20029;-51
2022/12/14 08:33:52;;;;;;;44.40;21.85;;;4.40;64.30;;;-1.33;99.54;93801.47;4959906;28;20080;-54
2022/12/14 08:36:25;;;;;;;45.13;23.23;;;4.50;65.20;;;-1.31;98.87;93797.59;4959359;28;20109;-53
2022/12/14 08:39:06;;;;;;;42.17;22.90;;;4.50;64.50;;;-1.32;97.91;93808.25;4961520;28;20041;-50
2022/12/14 08:41:33;;;;;;;41.47;22.67;;;4.50;64.40;;;-1.22;98.65;93805.84;4979222;28;20029;-45
2022/12/14 08:44:02;;;;;;;35.70;20.98;;;4.60;64.30;;;-1.11;98.76;93801.59;4941484;28;20030;-50
2022/12/14 08:46:33;;;;;;;40.60;22.63;;;4.70;64.30;;;-1.10;98.04;93798.72;4957355;28;20068;-46
2022/12/14 08:48:59;;;;;;;38.58;22.35;;;4.80;64.30;;;-1.08;97.65;93809.75;4946251;28;20026;-50
2022/12/14 08:51:27;;;;;;;51.85;22.58;;;4.80;64.10;;;-1.05;97.48;93806.66;4959287;28;20050;-53
2022/12/14 08:53:54;;;;;;;36.28;21.13;;;4.90;64.10;;;-1.05;96.85;93801.44;4959923;28;20100;-45
2022/12/14 08:56:26;;;;;;;36.55;19.98;;;5.00;64.00;;;-0.94;97.04;93812.84;4955617;28;20030;-46
2022/12/14 08:58:52;;;;;;;38.63;22.35;;;5.10;63.80;;;-0.88;96.52;93798.03;4962467;28;20084;-51
2022/12/14 09:01:29;;;;;;;36.28;21.65;;;5.20;63.70;;;-0.79;95.74;93796.63;4959813;28;20029;-50
2022/12/14 09:04:00;;;;;;;33.92;18.73;;;5.40;63.50;;;-0.67;95.57;93801.78;4960926;28;20046;-51
2022/12/14 09:06:36;;;;;;;41.15;21.50;;;5.50;63.20;;;-0.59;96.14;93811.84;4968009;28;20141;-49
2022/12/14 09:09:07;;;;;;;37.13;21.45;;;5.60;63.00;;;-0.56;95.66;93824.47;4960181;28;20026;-49
2022/12/14 09:11:36;;;;;;;37.83;19.92;;;5.70;62.90;;;-0.46;95.45;93822.00;4953043;28;20053;-47
2022/12/14 09:14:05;;;;;;;37.83;20.75;;;5.80;62.80;;;-0.44;95.52;93834.81;4979043;28;20046;-48
2022/12/14 09:16:31;;;;;;;36.35;21.08;;;5.90;62.70;;;-0.48;94.98;93830.06;4958876;28;20485;-51
2022/12/14 09:19:00;;;;;;;38.05;21.00;;;5.90;62.60;;;-0.54;94.90;93830.22;4962418;28;20497;-52
2022/12/14 09:21:26;;;;;;;36.08;21.00;;;5.90;62.40;;;-0.52;94.68;93834.19;4944008;28;20579;-50
2022/12/14 09:23:55;;;;;;;37.67;21.23;;;6.00;62.30;;;-0.48;95.37;93830.06;4959872;28;20026;-50
2022/12/14 09:26:24;;;;;;;38.85;21.08;;;6.00;62.30;;;-0.36;95.08;93819.53;4960561;28;20018;-49
2022/12/14 09:28:56;;;;;;;37.13;21.15;;;6.00;62.20;;;-0.32;94.99;93818.00;4960993;28;20040;-55
2022/12/14 09:31:26;;;;;;;36.95;21.27;;;6.00;62.20;;;-0.38;93.77;93802.47;4956560;28;20026;-49
2022/12/14 09:33:53;;;;;;;41.70;22.08;;;5.90;62.10;;;-0.42;93.67;93807.41;4940413;28;20489;-55
2022/12/14 09:36:26;;;;;;;38.42;21.30;;;5.90;62.20;;;-0.53;93.82;93803.06;4942730;28;20125;-51
2022/12/14 09:38:56;;;;;;;38.67;22.25;;;5.80;62.20;;;-0.71;95.52;93786.56;4943889;28;20034;-53
2022/12/14 09:41:46;;;;;;;47.00;22.27;;;5.70;62.20;;;-0.72;97.28;93789.44;4948684;28;20137;-51
2022/12/14 09:44:39;;;;;;;34.78;18.73;;;5.60;62.20;;;-0.59;97.29;93793.56;4955066;28;20037;-51
2022/12/14 09:47:40;;;;;;;41.05;21.98;;;5.60;62.50;;;-0.61;98.09;93792.97;4960753;28;20117;-47
2022/12/14 09:50:18;;;;;;;46.03;21.88;;;5.60;62.60;;;-0.52;98.28;93796.78;4961091;28;20026;-47
2022/12/14 09:53:04;;;;;;;38.03;22.13;;;5.60;62.90;;;-0.49;97.84;93804.94;4946407;28;20022;-53
2022/12/14 09:55:36;;;;;;;37.17;20.58;;;5.70;62.80;;;-0.36;98.07;93795.97;4959062;28;20026;-47
2022/12/14 09:58:30;;;;;;;42.80;22.70;;;5.80;62.80;;;-0.17;97.83;93796.50;4947925;28;20136;-49
2022/12/14 10:01:23;;;;;;;37.97;21.55;;;6.00;62.70;;;0.02;97.24;93789.16;4938054;28;20133;-47
2022/12/14 10:04:54;;;;;;;35.53;18.63;;;6.30;62.60;;;0.23;96.06;93779.72;4962913;28;20026;-47
2022/12/14 10:08:04;;;;;;;45.22;20.67;;;6.60;62.30;;;0.41;95.49;93792.53;4939364;28;20034;-48
2022/12/14 10:11:00;;;;;;;38.22;20.58;;;6.90;62.00;;;0.50;95.07;93794.69;4953260;28;20117;-48
2022/12/14 10:13:33;;;;;;;32.45;18.90;;;7.00;61.80;;;0.72;94.15;93787.59;4966706;28;20038;-50
2022/12/14 10:16:26;;;;;;;36.30;18.45;;;7.40;61.60;;;0.92;92.45;93784.41;4975851;28;20117;-51
2022/12/14 10:19:45;;;;;;;30.35;15.82;;;7.80;61.10;;;1.13;91.80;93788.00;4968537;28;20042;-48
2022/12/14 10:22:29;;;;;;;24.77;14.05;;;8.10;60.50;;;1.38;91.12;93785.59;4968405;28;20476;-48
2022/12/14 10:25:28;;;;;;;25.00;17.00;;;8.50;60.10;;;1.83;88.95;93768.56;4942641;28;20026;-48
2022/12/14 10:28:43;;;;;;;25.40;16.63;;;9.10;59.70;;;2.37;86.07;93766.72;4956394;28;20089;-49
2022/12/14 10:31:33;;;;;;;24.75;15.02;;;10.40;59.00;;;2.54;84.56;93768.09;4968390;28;20093;-51
2022/12/14 10:34:21;;;;;;;22.65;14.85;;;11.00;57.80;;;2.49;83.72;93762.03;4945759;28;20072;-53
2022/12/14 10:37:30;;;;;;;21.23;14.95;;;11.00;57.10;;;2.35;82.34;93759.09;4952432;28;20226;-53
2022/12/14 10:40:08;;;;;;;20.83;13.05;;;10.80;56.90;;;2.50;83.73;93769.63;4962239;28;20057;-54
2022/12/14 10:43:25;;;;;;;19.48;13.43;;;10.80;56.90;;;3.15;83.69;93762.16;4973141;28;20076;-55
2022/12/14 10:45:56;;;;;;;18.85;13.55;;;11.60;56.70;;;3.67;80.38;93752.41;4956904;28;20050;-54
2022/12/14 10:48:44;;;;;;;18.52;13.38;;;12.60;56.00;;;4.17;76.81;93761.25;4965176;28;20058;-56
2022/12/14 10:51:42;;;;;;;19.00;13.23;;;13.70;55.00;;;4.44;76.39;93744.28;4968678;28;20370;-52
2022/12/14 10:54:24;;;;;;;17.48;12.73;;;14.20;54.40;;;4.91;73.52;93735.84;4960072;28;20050;-54
2022/12/14 10:56:50;;;;;;;16.07;11.53;;;15.20;52.80;;;5.35;72.85;93742.91;4972722;28;20030;-57
2022/12/14 10:59:27;;;;;;;16.98;12.23;;;16.00;51.90;;;5.61;70.03;93751.44;4963218;28;20674;-54
2022/12/14 11:02:30;;;;;;;14.48;12.00;;;16.80;50.40;;;5.55;69.38;93760.47;4881765;28;21322;-56
2022/12/14 11:05:14;;;;;;;15.25;12.25;;;17.30;49.20;;;5.49;70.51;93753.66;4930784;28;20030;-56
2022/12/14 11:07:44;;;;;;;16.30;11.25;;;17.10;48.30;;;5.54;70.73;93751.75;4961218;28;20027;-54
2022/12/14 11:10:38;;;;;;;16.55;12.02;;;16.80;48.40;;;5.39;71.30;93746.59;4970958;28;20033;-56